Palmer Municipal Airport Palmer US
ICAO: PAAQ
IATA:
Category: Medium
Scheduled Services:

Elevation: 242 ft
TransAlt. 18000 ft.

Airport Communications:
ANCHORAGE CNTR:118.6
ASOS:134.75
CTAF:123.6
RDO:123.6
KENAI RDO:123.6

PAAQ Zoom In..

Runways:

(A) RW 09 length 3617 ft width 75 ft
---- / hdg 93

(B) RW 16 length 6009 ft width 100 ft
---- / hdg 160

(C) RW 27 length 3617 ft width 75 ft
---- / hdg 273

(D) RW 34 length 6009 ft width 100 ft
---- / hdg 340

Location; PAAQ
Day. 23 / Time. 06.53 Zulu
* Altimeter: 30.22
* Temperature: 17° c. 62.6°f.
* Wind from: 220° Speed 04 kn.
Dewpoint: 13° c.
Visibility: 10 Statute Miles.
Clouds: Clear (automated report).

PAAQ 230653Z AUTO 22004KT 10SM CLR 17/13 A3022 RMK AO2 SLP234 T01670128 TSNO


Wind From 220°
Speed 04 kn.

 
 
jpsmedia.com for Web Design worldairports.se 2018   terms of use